Terminal Aerodrome Forecast
Issued by NWS

Home | Current Version | Previous Version | Text Only | Print | Product List | Glossary On
Versions: 1 2 3 4 5 6 7 8 9 10 11 12 13 14 15 16 17 18 19 20 21 22 23 24 25 26 27 28 29 30 31 32 33 34 35 36 37 38 39 40 41 42 43 44 45 46 47 48 49 50
000
FTUS45 KVEF 011120
TAFLAS
TAF
KLAS 011120Z 0112/0212 15003KT P6SM FEW150 OVC250
     FM011400 20008KT P6SM VCTS SCT090CB BKN150
      TEMPO 0115/0118 VRB10G20KT 6SM -TSRA SCT070CB BKN100
     FM011900 15010KT P6SM VCTS SCT090CB BKN150
      TEMPO 0119/0123 VRB10G20KT 6SM -TSRA SCT070CB BKN100
     FM020100 15008KT P6SM VCTS FEW090CB SCT110 BKN150
     FM020300 05008KT P6SM VCTS FEW070CB SCT090 BKN140
      TEMPO 0203/0206 VRB15G30KT 6SM -TSRA SCT070CB BKN100
     FM020700 20008KT P6SM FEW080 SCT120 BKN140=

USA.gov is the U.S. government's official web portal to all federal, state and local government web resources and services.